sensor_id;sensor_type;location;lat;lon;timestamp;temperature;humidity
13665;DHT22;6905;50.770;6.730;2024-02-26T00:01:45;6.70;99.90
13665;DHT22;6905;50.770;6.730;2024-02-26T00:04:13;6.70;99.90
13665;DHT22;6905;50.770;6.730;2024-02-26T00:06:39;6.70;99.90
13665;DHT22;6905;50.770;6.730;2024-02-26T00:09:06;6.70;99.90
13665;DHT22;6905;50.770;6.730;2024-02-26T00:11:34;6.70;99.90
13665;DHT22;6905;50.770;6.730;2024-02-26T00:14:01;6.70;99.90
13665;DHT22;6905;50.770;6.730;2024-02-26T00:16:28;6.70;99.90
13665;DHT22;6905;50.770;6.730;2024-02-26T00:18:55;6.70;99.90
13665;DHT22;6905;50.770;6.730;2024-02-26T00:21:21;6.70;99.90
13665;DHT22;6905;50.770;6.730;2024-02-26T00:23:49;6.60;99.90
13665;DHT22;6905;50.770;6.730;2024-02-26T00:26:15;6.60;99.90
13665;DHT22;6905;50.770;6.730;2024-02-26T00:28:44;6.60;99.90
13665;DHT22;6905;50.770;6.730;2024-02-26T00:31:09;6.60;99.90
13665;DHT22;6905;50.770;6.730;2024-02-26T00:33:37;6.60;99.90
13665;DHT22;6905;50.770;6.730;2024-02-26T00:36:04;6.60;99.90
13665;DHT22;6905;50.770;6.730;2024-02-26T00:38:30;6.60;99.90
13665;DHT22;6905;50.770;6.730;2024-02-26T00:40:59;6.60;99.90
13665;DHT22;6905;50.770;6.730;2024-02-26T00:43:26;6.60;99.90
13665;DHT22;6905;50.770;6.730;2024-02-26T00:45:57;6.60;99.90
13665;DHT22;6905;50.770;6.730;2024-02-26T00:48:24;6.60;99.90
13665;DHT22;6905;50.770;6.730;2024-02-26T00:50:51;6.60;99.90
13665;DHT22;6905;50.770;6.730;2024-02-26T00:53:19;6.60;99.90
13665;DHT22;6905;50.770;6.730;2024-02-26T00:55:46;6.60;99.90
13665;DHT22;6905;50.770;6.730;2024-02-26T00:58:15;6.60;99.90
13665;DHT22;6905;50.770;6.730;2024-02-26T01:00:42;6.60;99.90
13665;DHT22;6905;50.770;6.730;2024-02-26T01:03:11;6.50;99.90
13665;DHT22;6905;50.770;6.730;2024-02-26T01:05:37;6.50;99.90
13665;DHT22;6905;50.770;6.730;2024-02-26T01:08:04;6.50;99.90
13665;DHT22;6905;50.770;6.730;2024-02-26T01:10:34;6.50;99.90
13665;DHT22;6905;50.770;6.730;2024-02-26T01:13:03;6.50;99.90
13665;DHT22;6905;50.770;6.730;2024-02-26T01:15:30;6.50;99.90
13665;DHT22;6905;50.770;6.730;2024-02-26T01:18:03;6.50;99.90
13665;DHT22;6905;50.770;6.730;2024-02-26T01:20:32;6.40;99.90
13665;DHT22;6905;50.770;6.730;2024-02-26T01:23:02;6.40;99.90
13665;DHT22;6905;50.770;6.730;2024-02-26T01:25:29;6.40;99.90
13665;DHT22;6905;50.770;6.730;2024-02-26T01:27:56;6.40;99.90
13665;DHT22;6905;50.770;6.730;2024-02-26T01:30:25;6.40;99.90
13665;DHT22;6905;50.770;6.730;2024-02-26T01:32:57;6.40;99.90
13665;DHT22;6905;50.770;6.730;2024-02-26T01:35:24;6.40;99.90
13665;DHT22;6905;50.770;6.730;2024-02-26T01:37:53;6.40;99.90
13665;DHT22;6905;50.770;6.730;2024-02-26T01:40:20;6.40;99.90
13665;DHT22;6905;50.770;6.730;2024-02-26T01:42:46;6.40;99.90
13665;DHT22;6905;50.770;6.730;2024-02-26T01:45:14;6.40;99.90
13665;DHT22;6905;50.770;6.730;2024-02-26T01:47:47;6.40;99.90
13665;DHT22;6905;50.770;6.730;2024-02-26T01:50:14;6.40;99.90
13665;DHT22;6905;50.770;6.730;2024-02-26T01:52:41;6.40;99.90
13665;DHT22;6905;50.770;6.730;2024-02-26T01:55:10;6.40;99.90
13665;DHT22;6905;50.770;6.730;2024-02-26T01:57:37;6.40;99.90
13665;DHT22;6905;50.770;6.730;2024-02-26T02:00:07;6.40;99.90
13665;DHT22;6905;50.770;6.730;2024-02-26T02:02:34;6.30;99.90
13665;DHT22;6905;50.770;6.730;2024-02-26T02:05:04;6.30;99.90
13665;DHT22;6905;50.770;6.730;2024-02-26T02:07:33;6.30;99.90
13665;DHT22;6905;50.770;6.730;2024-02-26T02:10:07;6.30;99.90
13665;DHT22;6905;50.770;6.730;2024-02-26T02:12:35;6.40;99.90
13665;DHT22;6905;50.770;6.730;2024-02-26T02:15:05;6.30;99.90
13665;DHT22;6905;50.770;6.730;2024-02-26T02:17:32;6.30;99.90
13665;DHT22;6905;50.770;6.730;2024-02-26T02:20:01;6.30;99.90
13665;DHT22;6905;50.770;6.730;2024-02-26T02:25:12;6.30;99.90
13665;DHT22;6905;50.770;6.730;2024-02-26T02:27:39;6.30;99.90
13665;DHT22;6905;50.770;6.730;2024-02-26T02:30:07;6.30;99.90
13665;DHT22;6905;50.770;6.730;2024-02-26T02:32:37;6.30;99.90
13665;DHT22;6905;50.770;6.730;2024-02-26T02:35:06;6.30;99.90
13665;DHT22;6905;50.770;6.730;2024-02-26T02:37:36;6.30;99.90
13665;DHT22;6905;50.770;6.730;2024-02-26T02:40:04;6.30;99.90
13665;DHT22;6905;50.770;6.730;2024-02-26T02:42:33;6.30;99.90
13665;DHT22;6905;50.770;6.730;2024-02-26T02:45:00;6.20;99.90
13665;DHT22;6905;50.770;6.730;2024-02-26T02:47:26;6.20;99.90
13665;DHT22;6905;50.770;6.730;2024-02-26T02:49:53;6.20;99.90
13665;DHT22;6905;50.770;6.730;2024-02-26T02:52:23;6.20;99.90
13665;DHT22;6905;50.770;6.730;2024-02-26T02:54:50;6.20;99.90
13665;DHT22;6905;50.770;6.730;2024-02-26T02:57:18;6.20;99.90
13665;DHT22;6905;50.770;6.730;2024-02-26T02:59:47;6.20;99.90
13665;DHT22;6905;50.770;6.730;2024-02-26T03:02:19;6.20;99.90
13665;DHT22;6905;50.770;6.730;2024-02-26T03:04:47;6.20;99.90
13665;DHT22;6905;50.770;6.730;2024-02-26T03:07:21;6.20;99.90
13665;DHT22;6905;50.770;6.730;2024-02-26T03:09:54;6.20;99.90
13665;DHT22;6905;50.770;6.730;2024-02-26T03:12:29;6.20;99.90
13665;DHT22;6905;50.770;6.730;2024-02-26T03:15:01;6.20;99.90
13665;DHT22;6905;50.770;6.730;2024-02-26T03:17:33;6.20;99.90
13665;DHT22;6905;50.770;6.730;2024-02-26T03:20:06;6.20;99.90
13665;DHT22;6905;50.770;6.730;2024-02-26T03:22:45;6.20;99.90
13665;DHT22;6905;50.770;6.730;2024-02-26T03:25:19;6.20;99.90
13665;DHT22;6905;50.770;6.730;2024-02-26T03:27:48;6.20;99.90
13665;DHT22;6905;50.770;6.730;2024-02-26T03:30:17;6.20;99.90
13665;DHT22;6905;50.770;6.730;2024-02-26T03:32:56;6.20;99.90
13665;DHT22;6905;50.770;6.730;2024-02-26T03:35:26;6.20;99.90
13665;DHT22;6905;50.770;6.730;2024-02-26T03:38:06;6.30;99.90
13665;DHT22;6905;50.770;6.730;2024-02-26T03:40:34;6.30;99.90
13665;DHT22;6905;50.770;6.730;2024-02-26T03:43:01;6.20;99.90
13665;DHT22;6905;50.770;6.730;2024-02-26T03:45:31;6.30;99.90
13665;DHT22;6905;50.770;6.730;2024-02-26T03:47:59;6.30;99.90
13665;DHT22;6905;50.770;6.730;2024-02-26T03:50:26;6.30;99.90
13665;DHT22;6905;50.770;6.730;2024-02-26T03:52:53;6.30;99.90
13665;DHT22;6905;50.770;6.730;2024-02-26T03:55:21;6.30;99.90
13665;DHT22;6905;50.770;6.730;2024-02-26T03:57:50;6.30;99.90
13665;DHT22;6905;50.770;6.730;2024-02-26T04:00:17;6.30;99.90
13665;DHT22;6905;50.770;6.730;2024-02-26T04:02:47;6.30;99.90
13665;DHT22;6905;50.770;6.730;2024-02-26T04:05:16;6.30;99.90
13665;DHT22;6905;50.770;6.730;2024-02-26T04:07:47;6.30;99.90
13665;DHT22;6905;50.770;6.730;2024-02-26T04:10:19;6.30;99.90
13665;DHT22;6905;50.770;6.730;2024-02-26T04:12:46;6.30;99.90
13665;DHT22;6905;50.770;6.730;2024-02-26T04:15:28;6.40;99.90
13665;DHT22;6905;50.770;6.730;2024-02-26T04:17:57;6.30;99.90
13665;DHT22;6905;50.770;6.730;2024-02-26T04:20:26;6.30;99.90
13665;DHT22;6905;50.770;6.730;2024-02-26T04:22:53;6.30;99.90
13665;DHT22;6905;50.770;6.730;2024-02-26T04:25:23;6.30;99.90
13665;DHT22;6905;50.770;6.730;2024-02-26T04:27:52;6.30;99.90
13665;DHT22;6905;50.770;6.730;2024-02-26T04:30:23;6.30;99.90
13665;DHT22;6905;50.770;6.730;2024-02-26T04:32:50;6.30;99.90
13665;DHT22;6905;50.770;6.730;2024-02-26T04:35:34;6.30;99.90
13665;DHT22;6905;50.770;6.730;2024-02-26T04:38:03;6.30;99.90
13665;DHT22;6905;50.770;6.730;2024-02-26T04:40:42;6.30;99.90
13665;DHT22;6905;50.770;6.730;2024-02-26T04:43:20;6.30;99.90
13665;DHT22;6905;50.770;6.730;2024-02-26T04:45:49;6.30;99.90
13665;DHT22;6905;50.770;6.730;2024-02-26T04:48:22;6.30;99.90
13665;DHT22;6905;50.770;6.730;2024-02-26T04:50:52;6.30;99.90
13665;DHT22;6905;50.770;6.730;2024-02-26T04:53:28;6.30;99.90
13665;DHT22;6905;50.770;6.730;2024-02-26T04:55:58;6.30;99.90
13665;DHT22;6905;50.770;6.730;2024-02-26T04:58:28;6.30;99.90
13665;DHT22;6905;50.770;6.730;2024-02-26T05:00:55;6.30;99.90
13665;DHT22;6905;50.770;6.730;2024-02-26T05:03:32;6.20;99.90
13665;DHT22;6905;50.770;6.730;2024-02-26T05:06:02;6.20;99.90
13665;DHT22;6905;50.770;6.730;2024-02-26T05:08:29;6.20;99.90
13665;DHT22;6905;50.770;6.730;2024-02-26T05:10:56;6.20;99.90
13665;DHT22;6905;50.770;6.730;2024-02-26T05:13:23;6.20;99.90
13665;DHT22;6905;50.770;6.730;2024-02-26T05:16:05;6.20;99.90
13665;DHT22;6905;50.770;6.730;2024-02-26T05:18:46;6.20;99.90
13665;DHT22;6905;50.770;6.730;2024-02-26T05:21:26;6.20;99.90
13665;DHT22;6905;50.770;6.730;2024-02-26T05:23:53;6.20;99.90
13665;DHT22;6905;50.770;6.730;2024-02-26T05:26:26;6.20;99.90
13665;DHT22;6905;50.770;6.730;2024-02-26T05:29:09;6.20;99.90
13665;DHT22;6905;50.770;6.730;2024-02-26T05:31:38;6.20;99.90
13665;DHT22;6905;50.770;6.730;2024-02-26T05:34:05;6.20;99.90
13665;DHT22;6905;50.770;6.730;2024-02-26T05:36:35;6.20;99.90
13665;DHT22;6905;50.770;6.730;2024-02-26T05:39:04;6.20;99.90
13665;DHT22;6905;50.770;6.730;2024-02-26T05:41:32;6.20;99.90
13665;DHT22;6905;50.770;6.730;2024-02-26T05:43:59;6.20;99.90
13665;DHT22;6905;50.770;6.730;2024-02-26T05:46:46;6.20;99.90
13665;DHT22;6905;50.770;6.730;2024-02-26T05:49:34;6.20;99.90
13665;DHT22;6905;50.770;6.730;2024-02-26T05:52:02;6.20;99.90
13665;DHT22;6905;50.770;6.730;2024-02-26T05:57:46;6.20;99.90
13665;DHT22;6905;50.770;6.730;2024-02-26T06:00:31;6.20;99.90
13665;DHT22;6905;50.770;6.730;2024-02-26T06:03:26;6.20;99.90
13665;DHT22;6905;50.770;6.730;2024-02-26T06:06:10;6.10;99.90
13665;DHT22;6905;50.770;6.730;2024-02-26T06:08:57;6.20;99.90
13665;DHT22;6905;50.770;6.730;2024-02-26T06:11:38;6.10;99.90
13665;DHT22;6905;50.770;6.730;2024-02-26T06:14:26;6.10;99.90
13665;DHT22;6905;50.770;6.730;2024-02-26T06:20:00;6.10;99.90
13665;DHT22;6905;50.770;6.730;2024-02-26T06:22:41;6.10;99.90
13665;DHT22;6905;50.770;6.730;2024-02-26T06:25:15;6.10;99.90
13665;DHT22;6905;50.770;6.730;2024-02-26T06:27:46;6.10;99.90
13665;DHT22;6905;50.770;6.730;2024-02-26T06:30:19;6.10;99.90
13665;DHT22;6905;50.770;6.730;2024-02-26T06:32:46;6.10;99.90
13665;DHT22;6905;50.770;6.730;2024-02-26T06:35:29;6.10;99.90
13665;DHT22;6905;50.770;6.730;2024-02-26T06:37:58;6.10;99.90
13665;DHT22;6905;50.770;6.730;2024-02-26T06:40:27;6.10;99.90
13665;DHT22;6905;50.770;6.730;2024-02-26T06:43:10;6.10;99.90
13665;DHT22;6905;50.770;6.730;2024-02-26T06:45:54;6.10;99.90
13665;DHT22;6905;50.770;6.730;2024-02-26T06:48:25;6.00;99.90
13665;DHT22;6905;50.770;6.730;2024-02-26T06:50:54;6.00;99.90
13665;DHT22;6905;50.770;6.730;2024-02-26T06:53:41;6.00;99.90
13665;DHT22;6905;50.770;6.730;2024-02-26T07:05:17;6.00;99.90
13665;DHT22;6905;50.770;6.730;2024-02-26T07:11:14;6.00;99.90
13665;DHT22;6905;50.770;6.730;2024-02-26T07:17:17;6.00;99.90
13665;DHT22;6905;50.770;6.730;2024-02-26T09:15:42;6.20;99.90
13665;DHT22;6905;50.770;6.730;2024-02-26T09:22:46;6.20;99.90
13665;DHT22;6905;50.770;6.730;2024-02-26T09:43:15;6.30;99.90
13665;DHT22;6905;50.770;6.730;2024-02-26T09:46:33;6.30;99.90
13665;DHT22;6905;50.770;6.730;2024-02-26T09:49:40;6.30;99.90
13665;DHT22;6905;50.770;6.730;2024-02-26T10:11:09;6.60;99.90
13665;DHT22;6905;50.770;6.730;2024-02-26T10:15:11;6.60;99.90
13665;DHT22;6905;50.770;6.730;2024-02-26T22:03:25;6.90;99.90
13665;DHT22;6905;50.770;6.730;2024-02-26T22:05:55;6.90;99.90
13665;DHT22;6905;50.770;6.730;2024-02-26T22:08:35;6.90;99.90
13665;DHT22;6905;50.770;6.730;2024-02-26T22:14:33;6.80;99.90
13665;DHT22;6905;50.770;6.730;2024-02-26T22:17:21;6.80;99.90
13665;DHT22;6905;50.770;6.730;2024-02-26T22:29:09;6.80;99.90
13665;DHT22;6905;50.770;6.730;2024-02-26T22:31:39;6.80;99.90
13665;DHT22;6905;50.770;6.730;2024-02-26T22:34:29;6.80;99.90
13665;DHT22;6905;50.770;6.730;2024-02-26T22:37:32;6.80;99.90
13665;DHT22;6905;50.770;6.730;2024-02-26T22:40:05;6.80;99.90
13665;DHT22;6905;50.770;6.730;2024-02-26T22:42:32;6.80;99.90
13665;DHT22;6905;50.770;6.730;2024-02-26T22:51:05;6.80;99.90
13665;DHT22;6905;50.770;6.730;2024-02-26T22:59:51;6.70;99.90
13665;DHT22;6905;50.770;6.730;2024-02-26T23:02:42;6.70;99.90
13665;DHT22;6905;50.770;6.730;2024-02-26T23:05:17;6.70;99.90
13665;DHT22;6905;50.770;6.730;2024-02-26T23:10:42;6.70;99.90
13665;DHT22;6905;50.770;6.730;2024-02-26T23:13:25;6.70;99.90
13665;DHT22;6905;50.770;6.730;2024-02-26T23:16:17;6.70;99.90
13665;DHT22;6905;50.770;6.730;2024-02-26T23:19:03;6.70;99.90
13665;DHT22;6905;50.770;6.730;2024-02-26T23:21:57;6.70;99.90
13665;DHT22;6905;50.770;6.730;2024-02-26T23:28:11;6.70;99.90
13665;DHT22;6905;50.770;6.730;2024-02-26T23:30:54;6.70;99.90
13665;DHT22;6905;50.770;6.730;2024-02-26T23:33:37;6.70;99.90
13665;DHT22;6905;50.770;6.730;2024-02-26T23:36:21;6.70;99.90
13665;DHT22;6905;50.770;6.730;2024-02-26T23:39:08;6.60;99.90
13665;DHT22;6905;50.770;6.730;2024-02-26T23:41:44;6.70;99.90
13665;DHT22;6905;50.770;6.730;2024-02-26T23:47:29;6.70;99.90
13665;DHT22;6905;50.770;6.730;2024-02-26T23:52:54;6.60;99.90
13665;DHT22;6905;50.770;6.730;2024-02-26T23:55:48;6.60;99.90
13665;DHT22;6905;50.770;6.730;2024-02-26T23:58:53;6.60;99.90
